createdAt,value
2017-12-13T00:00:53.031Z,11.15
2017-12-13T00:03:21.469Z,15.50
2017-12-13T00:05:49.715Z,15.32
2017-12-13T00:08:18.751Z,13.48
2017-12-13T00:10:47.012Z,12.35
2017-12-13T00:13:15.356Z,12.23
2017-12-13T00:15:43.821Z,12.02
2017-12-13T00:18:12.197Z,12.95
2017-12-13T00:20:40.456Z,13.95
2017-12-13T00:23:08.727Z,14.38
2017-12-13T00:25:36.984Z,11.60
2017-12-13T00:28:06.016Z,11.05
2017-12-13T00:30:34.319Z,11.40
2017-12-13T00:33:02.585Z,15.07
2017-12-13T00:35:30.840Z,11.12
2017-12-13T00:37:59.120Z,17.10
2017-12-13T00:40:27.527Z,11.13
2017-12-13T00:42:55.851Z,11.87
2017-12-13T00:45:24.093Z,13.32
2017-12-13T00:47:52.375Z,13.40
2017-12-13T00:50:20.629Z,11.60
2017-12-13T00:52:48.890Z,16.08
2017-12-13T00:55:17.942Z,12.98
2017-12-13T00:57:46.189Z,10.90
2017-12-13T01:00:14.462Z,12.68
2017-12-13T01:02:42.782Z,17.30
2017-12-13T01:05:11.057Z,16.90
2017-12-13T01:07:39.328Z,16.73
2017-12-13T01:10:07.631Z,14.03
2017-12-13T01:12:35.898Z,13.98
2017-12-13T01:15:04.194Z,13.70
2017-12-13T01:17:32.450Z,16.37
2017-12-13T01:20:00.727Z,12.25
2017-12-13T01:22:28.981Z,12.10
2017-12-13T01:24:57.326Z,11.60
2017-12-13T01:27:25.612Z,13.40
2017-12-13T01:29:53.982Z,12.27
2017-12-13T01:32:22.262Z,11.52
2017-12-13T01:34:50.538Z,15.68
2017-12-13T01:37:18.794Z,12.50
2017-12-13T01:39:47.071Z,13.85
2017-12-13T01:42:16.078Z,12.70
2017-12-13T01:44:44.352Z,11.38
2017-12-13T01:47:13.375Z,14.02
2017-12-13T01:49:41.634Z,9.55
2017-12-13T01:52:10.655Z,12.60
2017-12-13T01:54:38.948Z,10.73
2017-12-13T01:57:07.198Z,14.98
2017-12-13T01:59:35.524Z,14.90
2017-12-13T02:02:03.896Z,13.30
2017-12-13T02:04:32.152Z,15.75
2017-12-13T02:07:00.435Z,16.12
2017-12-13T02:09:28.709Z,11.12
2017-12-13T02:11:56.980Z,14.60
2017-12-13T02:14:26.026Z,14.30
2017-12-13T02:16:54.285Z,14.90
2017-12-13T02:19:22.540Z,12.00
2017-12-13T02:21:51.693Z,14.93
2017-12-13T02:24:19.971Z,15.82
2017-12-13T02:26:48.244Z,11.38
2017-12-13T02:29:16.500Z,14.40
2017-12-13T02:31:44.760Z,12.25
2017-12-13T02:34:13.782Z,11.68
2017-12-13T02:36:42.043Z,9.88
2017-12-13T02:39:11.076Z,18.75
2017-12-13T02:41:39.346Z,9.85
2017-12-13T02:44:07.619Z,12.52
2017-12-13T02:46:36.690Z,11.52
2017-12-13T02:49:04.939Z,16.10
2017-12-13T02:51:33.190Z,13.45
2017-12-13T02:54:01.463Z,11.02
2017-12-13T02:56:29.716Z,10.60
2017-12-13T02:58:58.753Z,11.90
2017-12-13T03:01:27.002Z,10.18
2017-12-13T03:03:56.038Z,8.87
2017-12-13T03:06:24.278Z,12.93
2017-12-13T03:08:52.592Z,26.67
2017-12-13T03:11:20.895Z,25.40
2017-12-13T03:13:49.283Z,28.48
2017-12-13T03:16:17.555Z,35.08
2017-12-13T03:18:46.583Z,27.53
2017-12-13T03:21:14.934Z,19.13
2017-12-13T03:23:43.217Z,16.15
2017-12-13T03:26:11.491Z,17.25
2017-12-13T03:28:39.746Z,13.35
2017-12-13T03:31:08.013Z,16.08
2017-12-13T03:33:37.052Z,11.12
2017-12-13T03:36:05.310Z,13.68
2017-12-13T03:38:34.456Z,12.27
2017-12-13T03:41:02.720Z,9.57
2017-12-13T03:43:31.044Z,11.60
2017-12-13T03:45:59.272Z,9.38
2017-12-13T03:48:27.530Z,11.85
2017-12-13T03:50:56.546Z,12.10
2017-12-13T03:53:24.808Z,8.82
2017-12-13T03:55:53.866Z,12.60
2017-12-13T03:58:22.143Z,11.05
2017-12-13T04:00:50.396Z,12.43
2017-12-13T04:03:18.664Z,11.05
2017-12-13T04:05:46.927Z,11.38
2017-12-13T04:08:15.960Z,9.73
2017-12-13T04:10:44.215Z,9.80
2017-12-13T04:13:13.261Z,9.02
2017-12-13T04:15:41.522Z,12.45
2017-12-13T04:18:09.788Z,9.13
2017-12-13T04:20:38.039Z,10.98
2017-12-13T04:23:06.378Z,13.02
2017-12-13T04:25:34.631Z,10.73
2017-12-13T04:28:02.898Z,11.82
2017-12-13T04:30:31.943Z,11.35
2017-12-13T04:33:00.213Z,9.68
2017-12-13T04:35:28.508Z,10.52
2017-12-13T04:37:56.782Z,9.75
2017-12-13T04:40:25.054Z,12.98
2017-12-13T04:42:53.314Z,8.75
2017-12-13T04:45:21.580Z,9.98
2017-12-13T04:47:50.598Z,9.00
2017-12-13T04:50:18.846Z,11.05
2017-12-13T04:52:47.118Z,7.80
2017-12-13T04:55:15.388Z,11.82
2017-12-13T04:57:43.651Z,7.60
2017-12-13T05:00:11.922Z,9.18
2017-12-13T05:02:40.171Z,13.17
2017-12-13T05:05:09.213Z,9.13
2017-12-13T05:07:37.451Z,8.70
2017-12-13T05:10:06.486Z,10.23
2017-12-13T05:12:34.737Z,9.07
2017-12-13T05:15:03.064Z,11.00
2017-12-13T05:17:31.339Z,13.30
2017-12-13T05:19:59.593Z,9.82
2017-12-13T05:22:27.858Z,7.80
2017-12-13T05:24:56.126Z,10.55
2017-12-13T05:27:25.161Z,11.05
2017-12-13T05:29:53.457Z,10.10
2017-12-13T05:32:21.735Z,7.80
2017-12-13T05:34:49.978Z,8.37
2017-12-13T05:37:18.235Z,10.60
2017-12-13T05:39:47.253Z,9.15
2017-12-13T05:42:15.524Z,9.50
2017-12-13T05:44:44.546Z,12.20
2017-12-13T05:47:12.858Z,9.00
2017-12-13T05:49:41.125Z,9.10
2017-12-13T05:52:09.414Z,10.90
2017-12-13T05:54:37.684Z,13.45
2017-12-13T05:57:05.926Z,11.07
2017-12-13T05:59:34.963Z,8.57
2017-12-13T06:02:03.225Z,11.68
2017-12-13T06:04:32.361Z,10.95
2017-12-13T06:07:00.642Z,8.00
2017-12-13T06:09:29.266Z,10.82
2017-12-13T06:11:59.223Z,12.10
2017-12-13T06:14:27.529Z,11.85
2017-12-13T06:16:55.794Z,15.35
2017-12-13T06:19:24.090Z,8.63
2017-12-13T06:21:52.563Z,11.03
2017-12-13T06:24:20.819Z,13.05
2017-12-13T06:26:49.831Z,16.17
2017-12-13T06:29:18.142Z,11.38
2017-12-13T06:31:46.394Z,12.80
2017-12-13T06:34:14.663Z,12.63
2017-12-13T06:36:43.685Z,13.40
2017-12-13T06:39:11.953Z,11.05
2017-12-13T06:41:40.230Z,13.90
2017-12-13T06:44:09.266Z,7.72
2017-12-13T06:46:37.519Z,10.73
2017-12-13T06:49:05.787Z,8.33
2017-12-13T06:51:34.796Z,11.50
2017-12-13T06:54:03.111Z,10.85
2017-12-13T06:56:31.359Z,10.40
2017-12-13T06:58:59.658Z,12.27
2017-12-13T07:01:28.230Z,14.00
2017-12-13T07:03:57.345Z,10.80
2017-12-13T07:06:25.602Z,10.95
2017-12-13T07:08:54.651Z,10.43
2017-12-13T07:11:22.909Z,7.87
2017-12-13T07:13:51.319Z,7.97
2017-12-13T07:16:19.562Z,8.93
2017-12-13T07:18:47.827Z,13.85
2017-12-13T07:21:16.856Z,9.20
2017-12-13T07:23:45.111Z,6.97
2017-12-13T07:26:14.417Z,9.10
2017-12-13T07:28:42.708Z,9.30
2017-12-13T07:31:10.954Z,8.30
2017-12-13T07:33:39.231Z,9.43
2017-12-13T07:36:07.487Z,10.88
2017-12-13T07:38:35.758Z,8.57
2017-12-13T07:41:04.006Z,12.07
2017-12-13T07:43:32.290Z,9.43
2017-12-13T07:46:00.618Z,9.43
2017-12-13T07:48:28.904Z,11.00
2017-12-13T07:50:57.176Z,12.85
2017-12-13T07:53:25.423Z,7.63
2017-12-13T07:55:53.703Z,9.93
2017-12-13T07:58:21.956Z,13.02
2017-12-13T08:00:50.221Z,11.73
2017-12-13T08:03:19.238Z,12.10
2017-12-13T08:05:48.284Z,10.80
2017-12-13T08:08:16.549Z,10.27
2017-12-13T08:10:44.812Z,10.23
2017-12-13T08:13:13.827Z,11.27
2017-12-13T08:15:42.092Z,8.83
2017-12-13T08:18:11.099Z,12.82
2017-12-13T08:20:39.369Z,14.23
2017-12-13T08:23:07.644Z,10.05
2017-12-13T08:25:36.676Z,8.70
2017-12-13T08:28:04.935Z,8.70
2017-12-13T08:30:34.003Z,9.67
2017-12-13T08:33:05.165Z,10.43
2017-12-13T08:35:33.439Z,12.80
2017-12-13T08:38:01.679Z,7.40
2017-12-13T08:40:30.001Z,10.27
2017-12-13T08:42:58.236Z,10.80
2017-12-13T08:45:26.503Z,7.60
2017-12-13T08:47:55.579Z,9.43
2017-12-13T08:50:23.819Z,8.23
2017-12-13T08:52:52.056Z,6.87
2017-12-13T08:55:20.364Z,11.97
2017-12-13T08:57:48.612Z,11.77
2017-12-13T09:00:16.870Z,9.67
2017-12-13T09:02:45.468Z,7.03
2017-12-13T09:05:14.489Z,6.10
2017-12-13T09:07:42.825Z,7.20
2017-12-13T09:10:11.064Z,8.30
2017-12-13T09:12:39.305Z,8.93
2017-12-13T09:15:07.563Z,8.63
2017-12-13T09:17:37.330Z,7.23
2017-12-13T09:20:05.638Z,7.90
2017-12-13T09:22:33.905Z,11.47
2017-12-13T09:25:02.167Z,10.93
2017-12-13T09:27:30.473Z,7.90
2017-12-13T09:29:58.772Z,12.60
2017-12-13T09:32:27.035Z,8.23
2017-12-13T09:34:55.364Z,8.70
2017-12-13T09:37:24.542Z,5.10
2017-12-13T09:39:52.933Z,10.80
2017-12-13T09:42:21.229Z,6.57
2017-12-13T09:44:49.587Z,4.40
2017-12-13T09:47:18.195Z,7.93
2017-12-13T09:49:47.500Z,5.77
2017-12-13T09:52:15.958Z,6.07
2017-12-13T09:54:44.268Z,10.13
2017-12-13T09:57:12.494Z,4.93
2017-12-13T09:59:40.772Z,6.70
2017-12-13T10:02:09.081Z,4.77
2017-12-13T10:04:37.334Z,5.43
2017-12-13T10:07:05.579Z,5.80
2017-12-13T10:09:34.614Z,6.23
2017-12-13T10:12:02.864Z,9.87
2017-12-13T10:14:31.125Z,5.43
2017-12-13T10:16:59.414Z,7.00
2017-12-13T10:19:27.765Z,5.60
2017-12-13T10:21:56.008Z,6.03
2017-12-13T10:24:24.451Z,9.40
2017-12-13T10:26:52.682Z,4.50
2017-12-13T10:29:22.667Z,6.57
2017-12-13T10:31:51.754Z,4.50
2017-12-13T10:34:20.025Z,4.00
2017-12-13T10:36:48.409Z,5.93
2017-12-13T10:39:16.665Z,6.27
2017-12-13T10:41:44.921Z,4.37
2017-12-13T10:44:13.930Z,5.40
2017-12-13T10:46:43.197Z,4.70
2017-12-13T10:49:11.454Z,7.40
2017-12-13T10:51:39.817Z,6.60
2017-12-13T10:54:08.139Z,4.30
2017-12-13T10:56:36.422Z,5.73
2017-12-13T10:59:04.661Z,6.07
2017-12-13T11:01:32.922Z,4.20
2017-12-13T11:04:01.923Z,7.13
2017-12-13T11:06:31.727Z,6.23
2017-12-13T11:09:00.874Z,4.70
2017-12-13T11:11:29.253Z,8.07
2017-12-13T11:13:57.544Z,5.67
2017-12-13T11:16:25.813Z,6.90
2017-12-13T11:18:54.070Z,5.47
2017-12-13T11:21:23.172Z,4.50
2017-12-13T11:23:51.616Z,5.77
2017-12-13T11:26:19.963Z,5.93
2017-12-13T11:28:48.226Z,4.43
2017-12-13T11:31:16.489Z,3.80
2017-12-13T11:33:45.504Z,5.47
2017-12-13T11:36:13.754Z,4.00
2017-12-13T11:38:42.765Z,7.97
2017-12-13T11:41:11.831Z,5.80
2017-12-13T11:43:40.100Z,6.07
2017-12-13T11:46:08.376Z,6.10
2017-12-13T11:48:36.659Z,8.13
2017-12-13T11:51:04.914Z,7.63
2017-12-13T11:53:33.206Z,6.53
2017-12-13T11:56:01.903Z,8.10
2017-12-13T11:58:30.151Z,4.90
2017-12-13T12:00:59.177Z,6.90
2017-12-13T12:03:27.414Z,4.77
2017-12-13T12:05:56.497Z,5.27
2017-12-13T12:08:24.707Z,4.73
2017-12-13T12:10:54.369Z,5.37
2017-12-13T12:13:22.603Z,5.70
2017-12-13T12:15:51.640Z,4.53
2017-12-13T12:18:19.954Z,3.47
2017-12-13T12:20:48.196Z,3.77
2017-12-13T12:23:16.439Z,4.50
2017-12-13T12:25:45.479Z,3.42
2017-12-13T12:28:13.755Z,3.63
2017-12-13T12:30:42.047Z,8.10
2017-12-13T12:33:10.284Z,5.23
2017-12-13T12:35:39.320Z,5.40
2017-12-13T12:38:07.563Z,5.23
2017-12-13T12:40:36.577Z,7.00
2017-12-13T12:43:04.825Z,4.70
2017-12-13T12:45:33.854Z,3.60
2017-12-13T12:48:02.104Z,3.47
2017-12-13T12:50:30.354Z,3.67
2017-12-13T12:52:58.861Z,4.13
2017-12-13T12:55:27.548Z,6.17
2017-12-13T12:57:56.340Z,4.57
2017-12-13T13:00:24.653Z,5.40
2017-12-13T13:02:52.953Z,3.50
2017-12-13T13:05:21.203Z,2.40
2017-12-13T13:07:50.241Z,2.50
2017-12-13T13:10:18.465Z,3.27
2017-12-13T13:12:47.497Z,5.17
2017-12-13T13:15:15.749Z,4.15
2017-12-13T13:17:44.814Z,4.33
2017-12-13T13:20:13.084Z,3.47
2017-12-13T13:22:41.401Z,3.43
2017-12-13T13:25:09.614Z,2.37
2017-12-13T13:27:38.651Z,2.90
2017-12-13T13:30:06.893Z,3.47
2017-12-13T13:32:35.923Z,5.33
2017-12-13T13:35:04.162Z,2.40
2017-12-13T13:37:32.431Z,4.53
2017-12-13T13:40:01.477Z,4.30
2017-12-13T13:42:29.756Z,3.75
2017-12-13T13:44:58.050Z,8.15
2017-12-13T13:47:26.330Z,2.80
2017-12-13T13:49:54.584Z,2.10
2017-12-13T13:52:22.874Z,3.83
2017-12-13T13:54:51.900Z,5.68
2017-12-13T13:57:20.269Z,4.00
2017-12-13T13:59:48.527Z,2.62
2017-12-13T14:02:16.779Z,2.00
2017-12-13T14:04:45.810Z,6.23
2017-12-13T14:07:14.059Z,2.30
2017-12-13T14:09:43.080Z,2.80
2017-12-13T14:12:11.337Z,2.83
2017-12-13T14:14:40.374Z,3.50
2017-12-13T14:17:08.620Z,3.13
2017-12-13T14:19:37.664Z,4.07
2017-12-13T14:22:05.915Z,2.90
2017-12-13T14:24:34.936Z,2.90
2017-12-13T14:27:03.224Z,2.33
2017-12-13T14:29:31.485Z,3.30
2017-12-13T14:32:00.500Z,2.20
2017-12-13T14:34:28.754Z,6.73
2017-12-13T14:36:57.026Z,3.07
2017-12-13T14:39:25.285Z,2.27
2017-12-13T14:41:53.974Z,3.92
2017-12-13T14:44:22.234Z,2.60
2017-12-13T14:46:50.503Z,3.62
2017-12-13T14:49:18.758Z,3.07
2017-12-13T14:51:47.070Z,1.80
2017-12-13T14:54:15.329Z,2.40
2017-12-13T14:56:43.580Z,3.10
2017-12-13T14:59:12.606Z,2.35
2017-12-13T15:01:40.864Z,2.72
2017-12-13T15:04:09.895Z,3.33
2017-12-13T15:06:38.222Z,3.65
2017-12-13T15:09:06.471Z,2.35
2017-12-13T15:11:34.738Z,3.62
2017-12-13T15:14:02.962Z,3.90
2017-12-13T15:16:32.762Z,2.60
2017-12-13T15:19:01.026Z,2.87
2017-12-13T15:21:29.297Z,2.12
2017-12-13T15:23:57.555Z,2.58
2017-12-13T15:26:25.867Z,2.70
2017-12-13T15:28:54.108Z,3.17
2017-12-13T15:31:23.135Z,3.78
2017-12-13T15:33:51.380Z,2.93
2017-12-13T15:36:20.402Z,3.60
2017-12-13T15:38:48.711Z,2.93
2017-12-13T15:41:16.962Z,3.47
2017-12-13T15:43:45.200Z,5.90
2017-12-13T15:46:13.459Z,4.00
2017-12-13T15:48:41.694Z,3.70
2017-12-13T15:51:09.964Z,3.10
2017-12-13T15:53:38.980Z,3.60
2017-12-13T15:56:07.360Z,3.12
2017-12-13T15:58:35.609Z,3.30
2017-12-13T16:01:03.875Z,2.90
2017-12-13T16:03:32.173Z,3.53
2017-12-13T16:06:00.413Z,5.28
2017-12-13T16:08:28.660Z,3.50
2017-12-13T16:10:56.931Z,3.30
2017-12-13T16:13:25.962Z,3.90
2017-12-13T16:15:54.222Z,3.83
2017-12-13T16:18:22.475Z,3.75
2017-12-13T16:20:51.503Z,3.47
2017-12-13T16:23:19.761Z,3.72
2017-12-13T16:25:48.808Z,4.00
2017-12-13T16:28:17.067Z,4.28
2017-12-13T16:30:45.371Z,4.37
2017-12-13T16:33:13.686Z,4.10
2017-12-13T16:35:41.880Z,4.37
2017-12-13T16:38:10.911Z,4.27
2017-12-13T16:40:39.198Z,4.72
2017-12-13T16:43:07.472Z,4.00
2017-12-13T16:45:35.718Z,4.67
2017-12-13T16:48:04.750Z,6.03
2017-12-13T16:50:32.994Z,5.30
2017-12-13T16:53:02.026Z,5.47
2017-12-13T16:55:30.321Z,4.80
2017-12-13T16:57:58.879Z,10.48
2017-12-13T17:00:27.902Z,5.00
2017-12-13T17:02:56.182Z,4.90
2017-12-13T17:05:24.438Z,4.10
2017-12-13T17:07:52.708Z,5.35
2017-12-13T17:10:21.723Z,4.40
2017-12-13T17:12:50.023Z,4.90
2017-12-13T17:15:18.310Z,5.70
2017-12-13T17:17:46.571Z,6.62
2017-12-13T17:20:14.818Z,6.50
2017-12-13T17:22:43.072Z,4.27
2017-12-13T17:25:12.903Z,4.67
2017-12-13T17:27:41.147Z,5.20
2017-12-13T17:30:09.393Z,5.17
2017-12-13T17:32:38.973Z,5.13
2017-12-13T17:35:09.062Z,4.90
2017-12-13T17:37:37.325Z,4.97
2017-12-13T17:40:05.625Z,5.20
2017-12-13T17:42:33.894Z,4.90
2017-12-13T17:45:02.122Z,5.57
2017-12-13T17:47:30.456Z,5.07
2017-12-13T17:49:58.757Z,6.25
2017-12-13T17:52:27.655Z,5.67
2017-12-13T17:54:56.444Z,5.30
2017-12-13T17:57:24.697Z,6.03
2017-12-13T17:59:52.948Z,7.87
2017-12-13T18:02:21.458Z,8.00
2017-12-13T18:04:49.775Z,6.13
2017-12-13T18:07:18.031Z,5.10
2017-12-13T18:09:46.279Z,5.30
2017-12-13T18:12:15.303Z,6.13
2017-12-13T18:14:43.592Z,5.60
2017-12-13T18:17:11.845Z,5.20
2017-12-13T18:19:40.854Z,6.17
2017-12-13T18:22:09.882Z,7.60
2017-12-13T18:24:38.129Z,5.67
2017-12-13T18:27:07.166Z,5.60
2017-12-13T18:29:35.465Z,5.87
2017-12-13T18:32:03.912Z,6.83
2017-12-13T18:34:32.173Z,4.90
2017-12-13T18:37:00.399Z,6.77
2017-12-13T18:39:28.717Z,6.80
2017-12-13T18:41:57.955Z,5.50
2017-12-13T18:44:26.990Z,6.73
2017-12-13T18:46:55.252Z,7.73
2017-12-13T18:49:23.524Z,5.90
2017-12-13T18:51:51.775Z,6.27
2017-12-13T18:54:20.014Z,7.23
2017-12-13T18:56:48.365Z,8.98
2017-12-13T18:59:16.661Z,7.20
2017-12-13T19:01:44.939Z,8.83
2017-12-13T19:04:13.247Z,7.37
2017-12-13T19:06:41.503Z,7.90
2017-12-13T19:09:09.791Z,6.90
2017-12-13T19:11:38.049Z,7.13
2017-12-13T19:14:06.353Z,7.43
2017-12-13T19:16:34.640Z,7.67
2017-12-13T19:19:02.894Z,6.20
2017-12-13T19:21:31.144Z,6.40
2017-12-13T19:23:59.483Z,6.87
2017-12-13T19:26:27.763Z,5.77
2017-12-13T19:28:56.028Z,6.35
2017-12-13T19:31:24.275Z,5.17
2017-12-13T19:33:52.539Z,6.57
2017-12-13T19:36:20.787Z,7.00
2017-12-13T19:38:49.079Z,6.07
2017-12-13T19:41:17.343Z,6.00
2017-12-13T19:43:45.693Z,6.10
2017-12-13T19:46:13.878Z,5.00
2017-12-13T19:48:42.911Z,5.57
2017-12-13T19:51:11.159Z,4.37
2017-12-13T19:53:40.189Z,4.43
2017-12-13T19:56:08.438Z,5.10
2017-12-13T19:58:37.471Z,4.80
2017-12-13T20:01:05.711Z,4.03
2017-12-13T20:03:34.743Z,5.03
2017-12-13T20:06:02.975Z,4.87
2017-12-13T20:08:31.228Z,4.40
2017-12-13T20:10:59.495Z,4.20
2017-12-13T20:13:27.778Z,4.67
2017-12-13T20:15:56.059Z,3.83
2017-12-13T20:18:24.315Z,4.17
2017-12-13T20:20:52.562Z,3.97
2017-12-13T20:23:20.804Z,3.73
2017-12-13T20:25:49.056Z,4.47
2017-12-13T20:28:17.296Z,4.07
2017-12-13T20:30:47.060Z,4.03
2017-12-13T20:33:15.312Z,3.73
2017-12-13T20:35:44.343Z,4.20
2017-12-13T20:38:12.604Z,4.43
2017-12-13T20:40:41.622Z,4.20
2017-12-13T20:43:09.918Z,4.33
2017-12-13T20:45:38.174Z,4.23
2017-12-13T20:48:06.419Z,4.50
2017-12-13T20:50:36.182Z,4.43
2017-12-13T20:53:04.423Z,5.13
2017-12-13T20:55:32.681Z,4.00
2017-12-13T20:58:00.922Z,4.00
2017-12-13T21:00:29.192Z,3.90
2017-12-13T21:02:58.197Z,4.23
2017-12-13T21:05:26.454Z,5.23
2017-12-13T21:07:55.533Z,4.10
2017-12-13T21:10:24.506Z,4.07
2017-12-13T21:12:52.758Z,3.80
2017-12-13T21:15:21.061Z,4.63
2017-12-13T21:17:49.297Z,4.40
2017-12-13T21:20:17.551Z,4.33
2017-12-13T21:22:45.795Z,5.90
2017-12-13T21:25:14.092Z,7.30
2017-12-13T21:27:42.407Z,3.60
2017-12-13T21:30:10.752Z,3.60
2017-12-13T21:32:38.996Z,3.30
2017-12-13T21:35:08.009Z,8.53
2017-12-13T21:37:36.322Z,2.90
2017-12-13T21:40:04.576Z,2.53
2017-12-13T21:42:32.837Z,4.10
2017-12-13T21:45:01.844Z,3.50
2017-12-13T21:47:30.110Z,3.40
2017-12-13T21:49:58.375Z,3.37
2017-12-13T21:52:28.134Z,3.67
2017-12-13T21:54:56.424Z,3.70
2017-12-13T21:57:24.703Z,3.80
2017-12-13T21:59:52.979Z,3.50
2017-12-13T22:02:21.382Z,4.10
2017-12-13T22:04:49.629Z,4.40
2017-12-13T22:07:17.886Z,4.27
2017-12-13T22:09:46.927Z,5.10
2017-12-13T22:12:15.182Z,4.60
2017-12-13T22:14:43.426Z,5.40
2017-12-13T22:17:11.764Z,3.43
2017-12-13T22:19:40.004Z,2.63
2017-12-13T22:22:09.035Z,3.20
2017-12-13T22:24:37.331Z,2.67
2017-12-13T22:27:05.589Z,2.80
2017-12-13T22:29:33.888Z,2.50
2017-12-13T22:32:02.145Z,2.00
2017-12-13T22:34:30.390Z,2.57
2017-12-13T22:36:58.740Z,1.90
2017-12-13T22:39:26.997Z,1.63
2017-12-13T22:41:55.298Z,1.60
2017-12-13T22:44:23.563Z,2.10
2017-12-13T22:46:51.798Z,2.40
2017-12-13T22:49:20.844Z,1.97
2017-12-13T22:51:49.366Z,2.53
2017-12-13T22:54:17.618Z,2.77
2017-12-13T22:56:45.877Z,2.43
2017-12-13T22:59:14.137Z,2.47
2017-12-13T23:01:43.143Z,2.30
2017-12-13T23:04:11.412Z,4.40
2017-12-13T23:06:40.442Z,2.60
2017-12-13T23:09:08.714Z,2.07
2017-12-13T23:11:37.017Z,2.93
2017-12-13T23:14:05.299Z,2.10
2017-12-13T23:16:33.530Z,2.10
2017-12-13T23:19:02.556Z,2.13
2017-12-13T23:21:30.855Z,2.40
2017-12-13T23:23:59.109Z,2.03
2017-12-13T23:26:27.364Z,2.67
2017-12-13T23:28:55.624Z,2.40
2017-12-13T23:31:23.912Z,2.47
2017-12-13T23:33:52.152Z,2.13
2017-12-13T23:36:20.431Z,2.20
2017-12-13T23:38:49.438Z,2.23
2017-12-13T23:41:17.678Z,2.20
2017-12-13T23:43:46.698Z,2.43
2017-12-13T23:46:14.945Z,1.80
2017-12-13T23:48:43.962Z,1.83
2017-12-13T23:51:12.199Z,1.80
2017-12-13T23:53:40.463Z,1.43
2017-12-13T23:56:08.700Z,1.30
2017-12-13T23:58:36.963Z,1.07
